Time;durP1;ratioP1;P1;durP2;ratioP2;P2;SDS_P1;SDS_P2;PMS_P1;PMS_P2;Temp;Humidity;BMP_temperature;BMP_pressure;BME280_temperature;BME280_humidity;BME280_pressure;Samples;Min_cycle;Max_cycle;Signal;HPM_P1;HPM_P2
2021/08/04 04:00:55;;;;;;;2.77;2.57;;;16.50;99.90;;;;;;5757512;23;20481;-66
2021/08/04 04:03:22;;;;;;;4.10;2.90;;;16.50;99.90;;;;;;4995069;28;20461;-66
2021/08/04 04:05:49;;;;;;;4.30;3.13;;;16.50;99.90;;;;;;4995037;28;20990;-67
2021/08/04 04:08:15;;;;;;;3.03;2.73;;;16.50;99.90;;;;;;4995153;28;20458;-67
2021/08/04 04:10:42;;;;;;;2.70;2.60;;;16.50;99.90;;;;;;4995160;28;20470;-66
2021/08/04 04:13:09;;;;;;;6.10;2.57;;;16.50;99.90;;;;;;4994856;28;20938;-66
2021/08/04 04:15:36;;;;;;;3.30;3.10;;;16.50;99.90;;;;;;4995290;28;20454;-67
2021/08/04 04:18:04;;;;;;;3.63;2.80;;;16.50;99.90;;;;;;4995056;28;20460;-67
2021/08/04 04:20:30;;;;;;;6.03;2.73;;;16.50;99.90;;;;;;4994403;28;20528;-66
2021/08/04 04:22:57;;;;;;;4.03;3.03;;;16.50;99.90;;;;;;4994986;28;20457;-66
2021/08/04 04:25:24;;;;;;;3.33;3.13;;;16.50;99.90;;;;;;4994910;28;20508;-66
2021/08/04 04:27:50;;;;;;;3.83;3.53;;;16.50;99.90;;;;;;4994986;28;20458;-66
2021/08/04 04:30:17;;;;;;;2.87;2.67;;;16.50;99.90;;;;;;4994954;28;20480;-66
2021/08/04 04:32:44;;;;;;;2.83;2.73;;;16.60;99.90;;;;;;4995606;28;20462;-66
2021/08/04 04:35:12;;;;;;;3.20;2.90;;;16.60;99.90;;;;;;4994886;28;20462;-66
2021/08/04 04:37:39;;;;;;;3.03;2.83;;;16.60;99.90;;;;;;4994796;28;20500;-66
2021/08/04 04:40:07;;;;;;;3.30;3.10;;;16.70;99.90;;;;;;4994554;28;20946;-66
2021/08/04 04:42:34;;;;;;;5.37;3.30;;;16.70;99.90;;;;;;4994825;28;20477;-67
2021/08/04 04:45:01;;;;;;;2.50;2.40;;;16.70;99.90;;;;;;4994831;28;20461;-65
2021/08/04 04:47:27;;;;;;;2.60;2.47;;;16.70;99.90;;;;;;4994693;28;20839;-65
2021/08/04 04:49:54;;;;;;;3.13;2.87;;;16.80;99.90;;;;;;4994830;28;20454;-66
2021/08/04 04:52:22;;;;;;;2.77;2.57;;;16.90;99.90;;;;;;4994538;28;20477;-66
2021/08/04 04:54:49;;;;;;;3.37;3.10;;;16.90;99.90;;;;;;4994598;28;20465;-66
2021/08/04 04:57:15;;;;;;;4.80;2.27;;;16.90;99.90;;;;;;4994450;28;20454;-66
2021/08/04 04:59:42;;;;;;;3.67;3.00;;;17.00;99.90;;;;;;4994399;28;20515;-66
2021/08/04 05:02:09;;;;;;;3.07;2.77;;;17.00;99.90;;;;;;4994016;28;20486;-66
2021/08/04 05:04:35;;;;;;;2.90;2.67;;;17.10;99.90;;;;;;4993996;28;20461;-64
2021/08/04 05:07:02;;;;;;;4.00;2.87;;;17.20;99.90;;;;;;4994456;28;20532;-64
2021/08/04 05:09:30;;;;;;;3.77;3.57;;;17.20;99.90;;;;;;4994744;28;20458;-65
2021/08/04 05:11:57;;;;;;;3.40;2.37;;;17.20;99.90;;;;;;4998834;28;20500;-65
2021/08/04 05:14:24;;;;;;;3.13;2.93;;;17.30;99.90;;;;;;5000894;28;20450;-65
2021/08/04 05:16:50;;;;;;;3.37;2.90;;;17.40;99.90;;;;;;4999418;28;20455;-65
2021/08/04 05:19:17;;;;;;;2.80;2.60;;;17.50;99.90;;;;;;4996672;28;20943;-65
2021/08/04 05:21:44;;;;;;;2.70;2.50;;;17.50;99.90;;;;;;4994436;28;20482;-66
2021/08/04 05:24:10;;;;;;;2.90;2.60;;;17.60;99.90;;;;;;4994526;28;20464;-65
2021/08/04 05:26:38;;;;;;;3.23;2.50;;;17.60;99.90;;;;;;4997586;28;20474;-66
2021/08/04 05:29:05;;;;;;;3.67;2.80;;;17.70;99.90;;;;;;5014896;28;20461;-66
2021/08/04 05:31:32;;;;;;;4.93;2.63;;;17.90;99.90;;;;;;4996764;28;20988;-65
2021/08/04 05:33:58;;;;;;;2.57;2.37;;;18.00;99.90;;;;;;4997260;28;20798;-65
2021/08/04 05:36:25;;;;;;;2.80;2.60;;;18.20;99.90;;;;;;4998268;28;20460;-66
2021/08/04 05:38:53;;;;;;;2.50;2.40;;;18.40;99.90;;;;;;4998338;28;20520;-65
2021/08/04 05:41:20;;;;;;;3.50;3.20;;;18.60;99.90;;;;;;4997868;28;20844;-65
2021/08/04 05:43:48;;;;;;;2.27;2.17;;;18.70;99.90;;;;;;4998042;28;20465;-65
2021/08/04 05:46:15;;;;;;;2.87;2.70;;;19.10;99.90;;;;;;4997465;28;20549;-65
2021/08/04 05:48:41;;;;;;;2.90;2.70;;;19.50;99.90;;;;;;4997891;28;20453;-65
2021/08/04 05:51:08;;;;;;;2.47;2.37;;;19.90;99.90;;;;;;4997861;28;20473;-65
2021/08/04 05:53:35;;;;;;;2.40;2.30;;;20.20;99.90;;;;;;4998129;28;20457;-65
2021/08/04 05:56:01;;;;;;;1.97;1.97;;;20.50;99.90;;;;;;4998219;28;20450;-65
2021/08/04 05:58:28;;;;;;;2.13;2.03;;;20.60;99.90;;;;;;4998001;28;20476;-65
2021/08/04 06:00:56;;;;;;;2.67;2.10;;;20.70;99.90;;;;;;4997606;28;20548;-66
2021/08/04 06:03:23;;;;;;;2.03;1.93;;;20.80;99.90;;;;;;4998134;28;20456;-66
2021/08/04 06:05:50;;;;;;;2.90;2.20;;;20.80;99.90;;;;;;4997687;28;20458;-67
2021/08/04 06:08:16;;;;;;;2.80;2.57;;;21.00;99.90;;;;;;4997672;28;20480;-67
2021/08/04 06:10:43;;;;;;;2.40;2.30;;;21.00;99.90;;;;;;4997447;28;20488;-66
2021/08/04 06:13:10;;;;;;;2.50;2.30;;;21.10;99.90;;;;;;4997677;28;20807;-67
2021/08/04 06:15:37;;;;;;;2.43;2.33;;;21.00;99.90;;;;;;4997712;28;20461;-66
2021/08/04 06:18:05;;;;;;;2.27;2.17;;;21.00;99.90;;;;;;4997640;28;20485;-67
2021/08/04 06:20:32;;;;;;;2.23;2.13;;;21.00;99.90;;;;;;4997517;28;20477;-66
2021/08/04 06:22:58;;;;;;;2.13;2.03;;;21.20;99.90;;;;;;4997741;28;20441;-66
2021/08/04 06:25:25;;;;;;;1.97;1.87;;;21.20;99.90;;;;;;4997400;28;20457;-67
2021/08/04 06:27:52;;;;;;;2.73;2.53;;;21.20;99.90;;;;;;4997244;28;21036;-66
2021/08/04 06:30:19;;;;;;;2.27;2.17;;;21.20;99.90;;;;;;4997251;28;20484;-66
2021/08/04 06:32:46;;;;;;;2.60;2.47;;;21.20;99.90;;;;;;4997257;28;20458;-67
2021/08/04 06:35:14;;;;;;;2.30;2.10;;;21.20;99.90;;;;;;4997383;28;20465;-66
2021/08/04 06:37:41;;;;;;;2.53;2.33;;;21.40;99.90;;;;;;4997223;28;20457;-66
2021/08/04 06:40:09;;;;;;;3.50;2.47;;;21.60;99.90;;;;;;4996901;28;20968;-67
2021/08/04 06:42:35;;;;;;;2.40;2.30;;;22.10;99.90;;;;;;5004105;28;20478;-67
2021/08/04 06:45:02;;;;;;;2.97;2.77;;;22.30;99.90;;;;;;5003718;28;20453;-67
2021/08/04 06:47:29;;;;;;;4.00;2.17;;;22.40;99.90;;;;;;4997701;28;20500;-67
2021/08/04 06:49:55;;;;;;;2.07;1.97;;;22.10;99.90;;;;;;4997076;28;20461;-66
2021/08/04 06:52:24;;;;;;;2.07;1.97;;;22.00;99.90;;;;;;4996707;28;20477;-66
2021/08/04 06:54:50;;;;;;;2.53;2.33;;;21.80;99.90;;;;;;4996837;28;20458;-66
2021/08/04 06:57:17;;;;;;;2.33;2.23;;;21.60;99.90;;;;;;4996801;28;20453;-67
2021/08/04 06:59:44;;;;;;;2.37;2.17;;;21.60;99.90;;;;;;4997019;28;20462;-66
2021/08/04 07:02:10;;;;;;;2.80;2.13;;;21.70;99.90;;;;;;4996249;28;20489;-66
2021/08/04 07:04:37;;;;;;;4.50;2.50;;;21.70;99.90;;;;;;4996657;28;20805;-67
2021/08/04 07:07:05;;;;;;;4.20;2.20;;;21.60;99.90;;;;;;4996182;28;20846;-66
2021/08/04 07:09:35;;;;;;;2.30;2.20;;;21.60;99.90;;;;;;4996425;28;20464;-66
2021/08/04 07:12:01;;;;;;;2.77;2.57;;;22.00;99.90;;;;;;4996480;28;20478;-66
2021/08/04 07:14:28;;;;;;;2.77;2.57;;;22.20;99.90;;;;;;4996568;28;20442;-65
2021/08/04 07:16:55;;;;;;;2.13;2.03;;;22.40;99.90;;;;;;4996685;28;20453;-65
2021/08/04 07:19:21;;;;;;;2.50;2.30;;;22.70;99.90;;;;;;4996606;28;20454;-65
2021/08/04 07:21:48;;;;;;;2.80;2.60;;;22.70;99.90;;;;;;4996082;28;21037;-66
2021/08/04 07:24:15;;;;;;;3.30;2.33;;;23.30;99.90;;;;;;4996652;28;20480;-66
2021/08/04 07:26:44;;;;;;;2.53;2.20;;;24.00;99.90;;;;;;4996317;28;20468;-66
2021/08/04 07:29:11;;;;;;;4.10;2.33;;;24.40;99.90;;;;;;4996183;28;20450;-66
2021/08/04 07:31:39;;;;;;;2.67;2.07;;;24.80;99.90;;;;;;4996438;28;20897;-65
2021/08/04 07:34:06;;;;;;;2.10;2.00;;;24.50;99.90;;;;;;4996248;28;20465;-66
2021/08/04 07:36:32;;;;;;;2.40;2.30;;;24.40;99.90;;;;;;4996095;28;20453;-66
2021/08/04 07:38:59;;;;;;;2.37;2.20;;;24.20;99.90;;;;;;4995999;28;20454;-66
2021/08/04 07:41:26;;;;;;;2.40;2.20;;;24.10;99.90;;;;;;4995558;28;20991;-65
2021/08/04 07:43:54;;;;;;;2.50;2.30;;;23.80;99.90;;;;;;4996221;28;20494;-65
2021/08/04 07:46:22;;;;;;;4.03;2.63;;;23.60;99.90;;;;;;4996203;28;20457;-66
2021/08/04 07:48:49;;;;;;;2.73;2.57;;;23.30;99.90;;;;;;4995654;28;21000;-66
2021/08/04 07:51:16;;;;;;;2.43;2.33;;;23.40;99.90;;;;;;4995829;28;20473;-65
2021/08/04 07:53:43;;;;;;;2.00;1.90;;;23.40;99.90;;;;;;4995996;28;20457;-66
2021/08/04 07:56:11;;;;;;;2.23;2.13;;;23.30;99.90;;;;;;4994847;28;20480;-66
2021/08/04 07:58:38;;;;;;;2.13;2.03;;;23.00;99.90;;;;;;4995611;28;20461;-66
2021/08/04 08:01:06;;;;;;;2.50;2.37;;;23.00;99.90;;;;;;4995401;28;20489;-66
2021/08/04 08:03:32;;;;;;;2.10;2.00;;;23.10;99.90;;;;;;4995524;28;20461;-65
2021/08/04 08:05:59;;;;;;;2.50;2.40;;;23.30;99.90;;;;;;4995479;28;20569;-66
2021/08/04 08:08:26;;;;;;;2.37;2.27;;;23.30;99.90;;;;;;4994930;28;21020;-66
2021/08/04 08:10:53;;;;;;;2.77;2.57;;;23.30;99.90;;;;;;4995295;28;20557;-66
2021/08/04 08:13:20;;;;;;;2.70;2.50;;;23.60;99.90;;;;;;4995244;28;20504;-66
2021/08/04 08:15:47;;;;;;;2.20;2.10;;;24.10;99.90;;;;;;4995720;28;20500;-66
2021/08/04 08:18:15;;;;;;;2.27;2.17;;;24.80;99.90;;;;;;4995157;28;20438;-66
2021/08/04 08:20:42;;;;;;;2.53;2.33;;;25.40;99.90;;;;;;4994730;28;21014;-66
2021/08/04 08:23:10;;;;;;;2.50;2.40;;;25.90;99.90;;;;;;4994972;28;20458;-66
2021/08/04 08:25:37;;;;;;;3.63;2.63;;;26.60;98.40;;;;;;4995134;28;20453;-66
2021/08/04 08:28:05;;;;;;;2.80;2.00;;;27.00;96.20;;;;;;4994600;28;20990;-66
2021/08/04 08:30:33;;;;;;;2.50;2.40;;;27.30;95.10;;;;;;4994892;28;20509;-66
2021/08/04 08:33:00;;;;;;;3.37;2.67;;;27.40;95.30;;;;;;4995011;28;20460;-66
2021/08/04 08:35:30;;;;;;;2.50;2.40;;;27.50;92.90;;;;;;4994501;28;20958;-66
2021/08/04 08:37:56;;;;;;;2.40;2.30;;;27.50;93.30;;;;;;4994550;28;20457;-66
2021/08/04 08:40:23;;;;;;;2.00;1.90;;;27.80;93.20;;;;;;4994687;28;20457;-65
2021/08/04 08:42:50;;;;;;;2.03;1.93;;;28.00;89.40;;;;;;4994551;28;20457;-65
2021/08/04 08:45:17;;;;;;;1.70;1.60;;;28.00;90.80;;;;;;4994744;28;20465;-66
2021/08/04 08:47:45;;;;;;;2.77;2.30;;;27.80;88.90;;;;;;4994297;28;20986;-66
2021/08/04 08:50:13;;;;;;;2.60;2.50;;;27.70;90.50;;;;;;4994715;28;20438;-66
2021/08/04 08:52:41;;;;;;;1.90;1.90;;;27.60;89.90;;;;;;4994753;28;20460;-66
2021/08/04 08:55:11;;;;;;;2.20;2.00;;;27.30;91.90;;;;;;4994893;28;20457;-66
2021/08/04 08:57:37;;;;;;;2.60;2.50;;;27.00;91.10;;;;;;4994354;28;21018;-65
2021/08/04 09:00:05;;;;;;;2.70;2.50;;;26.40;90.20;;;;;;4995224;28;20453;-65
2021/08/04 09:02:32;;;;;;;2.20;2.00;;;25.80;92.50;;;;;;4994406;28;20896;-65
2021/08/04 09:05:01;;;;;;;2.93;2.60;;;25.20;92.30;;;;;;4995129;28;20458;-65
2021/08/04 09:07:32;;;;;;;2.50;2.30;;;24.70;92.80;;;;;;4999611;28;20496;-66
2021/08/04 09:10:00;;;;;;;2.80;2.23;;;24.20;92.50;;;;;;4997169;28;20823;-65
2021/08/04 09:12:27;;;;;;;2.70;2.50;;;24.00;94.00;;;;;;4994422;28;20485;-65
2021/08/04 09:14:53;;;;;;;2.10;2.00;;;23.80;93.90;;;;;;4994378;28;20462;-65
2021/08/04 09:17:20;;;;;;;2.10;2.00;;;23.30;94.10;;;;;;4994194;28;20485;-66
2021/08/04 09:19:49;;;;;;;2.50;2.20;;;23.00;95.00;;;;;;4994430;28;20457;-66
2021/08/04 09:22:20;;;;;;;2.40;2.00;;;22.80;95.70;;;;;;4994251;28;20835;-65
2021/08/04 09:25:02;;;;;;;2.53;2.43;;;22.80;95.70;;;;;;4994068;28;20989;-65
2021/08/04 09:27:39;;;;;;;2.20;2.00;;;22.70;97.70;;;;;;4994263;28;20469;-66
2021/08/04 09:30:06;;;;;;;2.23;1.83;;;22.90;96.30;;;;;;4994225;28;20547;-66
2021/08/04 09:32:33;;;;;;;2.70;2.50;;;23.00;96.30;;;;;;4994319;28;20478;-65
2021/08/04 09:35:07;;;;;;;2.57;2.40;;;23.10;95.70;;;;;;4994358;28;20458;-66
2021/08/04 09:37:34;;;;;;;2.63;2.10;;;23.40;98.10;;;;;;4994250;28;20456;-66
2021/08/04 09:40:03;;;;;;;3.60;2.57;;;23.70;97.10;;;;;;4994339;28;20461;-66
2021/08/04 09:42:49;;;;;;;2.40;2.30;;;23.80;98.50;;;;;;4993825;28;20473;-66
2021/08/04 09:45:18;;;;;;;2.60;2.33;;;24.50;99.90;;;;;;4994936;28;20492;-66
2021/08/04 09:48:00;;;;;;;2.30;2.20;;;25.20;99.70;;;;;;5004804;28;20504;-66
2021/08/04 09:50:28;;;;;;;3.33;2.50;;;26.10;98.90;;;;;;5002249;28;20434;-66
2021/08/04 09:52:56;;;;;;;2.73;2.43;;;27.00;94.80;;;;;;4994171;28;20458;-66
2021/08/04 09:55:25;;;;;;;2.70;2.60;;;27.80;92.80;;;;;;4994108;28;20462;-66
2021/08/04 09:57:55;;;;;;;3.47;2.73;;;27.40;91.30;;;;;;4994025;28;20454;-66
2021/08/04 10:00:23;;;;;;;3.90;2.47;;;26.70;92.10;;;;;;4993719;28;20496;-66
2021/08/04 10:02:49;;;;;;;2.30;2.20;;;26.30;92.00;;;;;;4994024;28;20434;-66
2021/08/04 10:05:18;;;;;;;2.60;2.50;;;26.00;93.20;;;;;;4993901;28;20454;-65
2021/08/04 10:08:06;;;;;;;2.77;2.57;;;25.80;92.40;;;;;;4993540;28;20481;-66
2021/08/04 10:10:37;;;;;;;2.33;2.23;;;25.50;93.10;;;;;;4993686;28;20443;-65
2021/08/04 10:13:07;;;;;;;3.70;2.80;;;25.50;94.50;;;;;;4993484;28;20923;-66
2021/08/04 10:15:40;;;;;;;3.17;2.93;;;25.00;95.00;;;;;;4994891;28;20457;-66
2021/08/04 10:18:09;;;;;;;2.47;2.37;;;25.00;96.00;;;;;;4993866;28;20525;-66
2021/08/04 10:20:37;;;;;;;3.23;2.63;;;24.70;95.70;;;;;;4997242;28;20473;-65
2021/08/04 10:23:04;;;;;;;2.80;2.70;;;24.50;95.10;;;;;;4997276;28;20454;-65
2021/08/04 10:25:34;;;;;;;2.70;2.50;;;24.20;95.60;;;;;;4997450;28;20456;-66
2021/08/04 10:28:03;;;;;;;3.03;2.53;;;24.20;97.20;;;;;;4996785;28;20509;-66
2021/08/04 10:30:31;;;;;;;2.97;2.80;;;23.70;98.50;;;;;;4996842;28;20453;-65
2021/08/04 10:32:57;;;;;;;3.77;2.70;;;23.50;98.30;;;;;;4997177;28;20496;-66
2021/08/04 10:35:25;;;;;;;3.90;2.87;;;23.40;97.80;;;;;;4997308;28;20450;-65
2021/08/04 10:37:53;;;;;;;3.60;3.40;;;23.20;99.10;;;;;;4997288;28;20453;-65
2021/08/04 10:40:20;;;;;;;3.70;3.40;;;23.00;99.40;;;;;;4996813;28;20453;-65
2021/08/04 10:42:48;;;;;;;2.80;2.70;;;22.60;99.90;;;;;;4997006;28;20438;-65
2021/08/04 10:45:32;;;;;;;3.53;3.23;;;22.70;99.90;;;;;;4996903;28;20453;-65
2021/08/04 10:48:24;;;;;;;2.47;2.37;;;22.90;99.90;;;;;;4996898;28;20473;-65
2021/08/04 10:51:17;;;;;;;2.77;2.63;;;23.10;99.90;;;;;;4997279;28;20473;-65
2021/08/04 10:54:18;;;;;;;3.57;2.60;;;23.30;99.90;;;;;;4996806;28;20461;-65
2021/08/04 10:57:11;;;;;;;3.27;3.07;;;23.20;99.90;;;;;;4997373;28;20438;-65
2021/08/04 10:59:40;;;;;;;2.90;2.60;;;23.50;99.90;;;;;;4996740;28;20454;-65
2021/08/04 11:02:31;;;;;;;2.90;2.70;;;23.40;99.60;;;;;;4996049;28;20986;-65
2021/08/04 11:05:00;;;;;;;3.03;2.80;;;23.60;99.90;;;;;;4990859;28;20462;-65
2021/08/04 11:07:27;;;;;;;3.60;3.30;;;23.90;99.80;;;;;;4996400;28;20461;-66
2021/08/04 11:10:07;;;;;;;3.83;3.33;;;24.30;97.80;;;;;;4996471;28;20464;-67
2021/08/04 11:12:55;;;;;;;4.20;3.50;;;24.70;98.70;;;;;;4996375;28;20903;-67
2021/08/04 11:15:25;;;;;;;3.40;3.10;;;25.50;97.60;;;;;;4993044;28;20529;-67
2021/08/04 11:18:13;;;;;;;4.20;3.40;;;26.10;97.00;;;;;;4996396;28;20446;-67
2021/08/04 11:21:13;;;;;;;3.90;3.60;;;26.40;95.40;;;;;;4996286;28;20576;-66
2021/08/04 11:23:45;;;;;;;3.67;2.93;;;26.50;92.00;;;;;;4997056;28;20456;-65
2021/08/04 11:26:26;;;;;;;4.07;3.77;;;26.80;94.80;;;;;;4995964;28;20824;-66
2021/08/04 11:28:53;;;;;;;5.93;4.80;;;27.10;94.00;;;;;;4996511;28;20473;-64
2021/08/04 11:31:22;;;;;;;3.17;2.97;;;26.60;92.80;;;;;;4994958;28;20540;-65
2021/08/04 11:33:49;;;;;;;3.23;3.00;;;26.50;92.40;;;;;;4995959;28;20458;-65
2021/08/04 11:36:23;;;;;;;4.07;3.10;;;26.30;94.00;;;;;;4996131;28;20465;-65
2021/08/04 11:38:56;;;;;;;3.40;3.20;;;26.50;94.00;;;;;;4996146;28;20473;-67
2021/08/04 11:41:31;;;;;;;4.50;3.43;;;26.30;93.90;;;;;;4996218;28;20474;-66
2021/08/04 11:44:09;;;;;;;3.20;3.00;;;26.30;94.30;;;;;;4996360;28;20457;-65
2021/08/04 11:46:39;;;;;;;3.60;3.33;;;26.30;95.60;;;;;;4996181;28;20442;-67
2021/08/04 11:49:09;;;;;;;6.60;3.20;;;26.40;93.30;;;;;;4996235;28;20462;-66
2021/08/04 11:51:39;;;;;;;3.57;3.37;;;26.50;93.60;;;;;;4995924;28;20532;-65
2021/08/04 11:54:08;;;;;;;4.83;3.40;;;26.00;93.10;;;;;;4995916;28;20437;-67
2021/08/04 11:56:35;;;;;;;3.23;3.13;;;25.70;94.40;;;;;;4995802;28;20457;-65
2021/08/04 11:59:06;;;;;;;3.10;2.87;;;25.80;94.30;;;;;;4995830;28;20438;-65
2021/08/04 12:01:32;;;;;;;3.90;2.83;;;25.90;96.00;;;;;;4995703;28;20486;-67
2021/08/04 12:04:05;;;;;;;3.13;2.80;;;25.90;94.50;;;;;;4995692;28;20457;-66
2021/08/04 12:06:33;;;;;;;3.30;3.20;;;25.90;96.80;;;;;;4995861;28;20461;-66
2021/08/04 12:09:18;;;;;;;3.10;2.77;;;25.90;94.40;;;;;;4995989;28;20570;-66
2021/08/04 12:11:45;;;;;;;3.00;2.70;;;26.10;93.90;;;;;;4995652;28;20473;-65
2021/08/04 12:14:15;;;;;;;3.17;2.97;;;25.90;93.20;;;;;;4996471;28;20457;-65
2021/08/04 12:16:43;;;;;;;3.30;3.00;;;25.90;94.10;;;;;;4995818;28;21005;-67
2021/08/04 12:19:11;;;;;;;2.93;2.73;;;25.80;96.70;;;;;;4995007;28;20458;-66
2021/08/04 12:21:38;;;;;;;3.13;2.93;;;25.60;96.00;;;;;;4995277;28;20478;-67
2021/08/04 12:24:05;;;;;;;3.33;3.10;;;25.70;95.00;;;;;;4995622;28;20448;-67
2021/08/04 12:26:45;;;;;;;6.50;3.50;;;25.70;94.40;;;;;;5017166;28;20425;-67
2021/08/04 12:29:16;;;;;;;3.20;3.00;;;25.60;93.60;;;;;;5008237;28;20481;-67
2021/08/04 12:32:00;;;;;;;3.33;3.13;;;25.60;95.00;;;;;;4995218;28;20474;-66
2021/08/04 12:34:29;;;;;;;2.97;2.60;;;25.70;94.00;;;;;;4995015;28;20465;-66
2021/08/04 12:36:55;;;;;;;3.97;3.47;;;25.60;95.10;;;;;;4994723;28;20934;-66
2021/08/04 12:39:24;;;;;;;3.37;3.17;;;25.40;94.60;;;;;;4994744;28;20456;-65
2021/08/04 12:41:51;;;;;;;3.07;2.87;;;25.50;94.50;;;;;;4994226;28;21005;-65
2021/08/04 12:44:18;;;;;;;3.20;2.90;;;25.10;95.20;;;;;;4994785;28;20532;-66
2021/08/04 12:46:45;;;;;;;3.63;2.87;;;25.30;95.20;;;;;;4994939;28;20458;-65
2021/08/04 12:49:17;;;;;;;3.23;3.00;;;25.30;96.00;;;;;;4994674;28;20484;-66
2021/08/04 12:51:55;;;;;;;4.90;3.23;;;25.10;95.20;;;;;;4997320;28;20484;-66
2021/08/04 12:54:29;;;;;;;3.23;3.03;;;24.80;95.80;;;;;;5003780;28;20461;-66
2021/08/04 12:56:56;;;;;;;3.23;3.03;;;24.70;95.20;;;;;;5000353;28;20475;-65
2021/08/04 12:59:24;;;;;;;2.30;2.20;;;24.70;95.00;;;;;;4994675;28;20485;-66
2021/08/04 13:02:08;;;;;;;2.70;2.50;;;24.80;95.20;;;;;;4994118;28;20490;-67
2021/08/04 13:04:35;;;;;;;2.87;2.77;;;24.80;95.70;;;;;;4994423;28;20442;-66
2021/08/04 13:07:05;;;;;;;2.13;2.03;;;24.70;94.30;;;;;;4994193;28;20963;-66
2021/08/04 13:09:47;;;;;;;2.70;2.50;;;24.60;95.20;;;;;;4994080;28;20474;-66
2021/08/04 13:12:16;;;;;;;2.93;2.73;;;24.60;96.50;;;;;;4994468;28;20481;-66
2021/08/04 13:15:08;;;;;;;4.27;2.87;;;24.50;95.60;;;;;;4993943;28;20888;-66
2021/08/04 13:17:37;;;;;;;3.00;2.80;;;24.40;94.30;;;;;;4984630;28;20466;-67
2021/08/04 13:20:13;;;;;;;2.90;2.70;;;24.20;94.60;;;;;;4994406;28;20472;-66
2021/08/04 13:23:01;;;;;;;2.77;2.67;;;24.10;96.20;;;;;;4994392;28;20444;-66
2021/08/04 13:25:31;;;;;;;2.90;2.70;;;24.20;98.80;;;;;;4994565;28;20438;-66
2021/08/04 13:28:04;;;;;;;2.90;2.60;;;24.10;95.70;;;;;;4994632;28;20453;-66
2021/08/04 13:30:33;;;;;;;2.43;2.23;;;24.10;96.60;;;;;;4994437;28;20442;-66
2021/08/04 13:33:04;;;;;;;5.03;2.83;;;24.10;98.40;;;;;;4994223;28;20487;-67
2021/08/04 13:35:31;;;;;;;2.73;2.63;;;24.10;96.50;;;;;;4993836;28;20462;-66
2021/08/04 13:37:59;;;;;;;3.27;3.07;;;23.90;96.30;;;;;;4993939;28;20453;-66
2021/08/04 13:40:26;;;;;;;1.93;1.80;;;23.70;96.10;;;;;;4994182;28;20454;-66
2021/08/04 13:42:53;;;;;;;2.80;2.60;;;23.70;97.30;;;;;;4994040;28;20457;-66
2021/08/04 13:45:22;;;;;;;2.40;2.30;;;23.70;97.30;;;;;;4994249;28;20468;-66
2021/08/04 13:47:50;;;;;;;2.00;1.90;;;23.40;96.80;;;;;;4993924;28;20541;-66
2021/08/04 13:50:18;;;;;;;2.10;2.00;;;23.40;96.50;;;;;;4993783;28;20485;-65
2021/08/04 13:52:50;;;;;;;2.13;2.03;;;23.30;96.50;;;;;;4994129;28;20453;-66
2021/08/04 13:55:18;;;;;;;2.27;2.17;;;23.30;96.30;;;;;;4997476;28;20449;-66
2021/08/04 13:57:45;;;;;;;2.57;2.37;;;23.10;97.10;;;;;;4997776;28;20464;-66
2021/08/04 14:00:14;;;;;;;2.33;2.23;;;22.70;97.20;;;;;;4998492;28;20915;-66
2021/08/04 14:02:41;;;;;;;1.93;1.83;;;22.90;97.40;;;;;;4997837;28;20477;-66
2021/08/04 14:05:10;;;;;;;2.40;2.20;;;22.90;97.80;;;;;;4997581;28;20454;-66
2021/08/04 14:07:38;;;;;;;2.97;2.47;;;23.00;98.80;;;;;;4998703;28;20457;-66
2021/08/04 14:10:05;;;;;;;2.70;2.50;;;23.10;98.50;;;;;;4997455;28;20480;-66
2021/08/04 14:12:34;;;;;;;2.57;2.47;;;23.10;98.00;;;;;;4997323;28;20809;-66
2021/08/04 14:15:01;;;;;;;3.27;2.30;;;23.20;98.70;;;;;;4997544;28;20461;-66
2021/08/04 14:17:27;;;;;;;2.33;2.10;;;23.20;97.40;;;;;;4997219;28;20453;-66
2021/08/04 14:19:54;;;;;;;2.27;2.13;;;23.10;98.50;;;;;;4997073;28;20875;-66
2021/08/04 14:22:22;;;;;;;2.03;1.93;;;23.10;99.30;;;;;;4997347;28;20477;-66
2021/08/04 14:24:49;;;;;;;2.30;2.13;;;23.00;98.10;;;;;;4997294;28;20453;-66
2021/08/04 14:27:16;;;;;;;2.20;2.10;;;23.00;98.60;;;;;;4997405;28;20453;-66
2021/08/04 14:29:44;;;;;;;3.90;3.60;;;23.00;99.90;;;;;;4997075;28;20532;-66
2021/08/04 14:32:12;;;;;;;65.80;59.30;;;23.00;99.90;;;;;;4997067;28;20480;-66
2021/08/04 14:34:39;;;;;;;83.13;76.00;;;23.00;99.90;;;;;;4997259;28;20461;-66
2021/08/04 14:37:06;;;;;;;18.80;17.40;;;23.00;99.90;;;;;;4997120;28;20457;-66
2021/08/04 14:39:33;;;;;;;20.37;18.90;;;22.90;99.40;;;;;;4997034;28;20476;-66
2021/08/04 14:42:01;;;;;;;18.43;17.17;;;22.80;99.00;;;;;;4996970;28;20477;-66
2021/08/04 14:44:27;;;;;;;17.87;16.67;;;22.70;99.90;;;;;;4996724;28;20457;-66
2021/08/04 14:46:55;;;;;;;16.20;15.10;;;22.70;98.80;;;;;;4997369;28;20454;-66
2021/08/04 14:49:22;;;;;;;4.70;4.30;;;22.70;98.70;;;;;;4996767;28;20497;-66
2021/08/04 14:51:49;;;;;;;4.60;4.30;;;22.50;98.50;;;;;;4996687;28;20500;-66
2021/08/04 14:54:16;;;;;;;8.17;5.90;;;22.50;98.80;;;;;;4996711;28;20509;-66
2021/08/04 14:56:44;;;;;;;5.57;5.20;;;22.50;99.90;;;;;;4996747;28;20454;-66
2021/08/04 14:59:11;;;;;;;2.90;2.70;;;22.50;99.90;;;;;;4996646;28;20504;-66
2021/08/04 15:01:38;;;;;;;3.17;2.97;;;22.50;99.90;;;;;;4996304;28;20568;-66
2021/08/04 15:04:07;;;;;;;3.07;2.00;;;22.50;98.30;;;;;;4996449;28;20457;-66
2021/08/04 15:06:35;;;;;;;2.63;2.20;;;22.40;97.90;;;;;;4996980;28;20537;-66
2021/08/04 15:09:03;;;;;;;2.17;2.07;;;22.30;99.00;;;;;;4996276;28;20988;-66
2021/08/04 15:11:30;;;;;;;3.00;2.40;;;22.40;99.70;;;;;;4996596;28;20478;-66
2021/08/04 15:13:56;;;;;;;2.73;2.63;;;22.40;98.60;;;;;;4996552;28;20454;-65
2021/08/04 15:16:23;;;;;;;2.30;2.20;;;22.50;99.90;;;;;;4996068;28;20804;-66
2021/08/04 15:18:50;;;;;;;2.80;2.70;;;22.40;99.90;;;;;;4996436;28;20450;-67
2021/08/04 15:21:18;;;;;;;2.47;2.37;;;22.50;99.90;;;;;;4996378;28;20525;-66
2021/08/04 15:23:45;;;;;;;2.80;2.43;;;22.50;99.10;;;;;;4996473;28;20457;-66
2021/08/04 15:26:14;;;;;;;2.07;1.97;;;22.50;98.80;;;;;;4996493;28;20450;-66
2021/08/04 15:28:41;;;;;;;2.20;2.00;;;22.50;98.80;;;;;;4995867;28;20496;-66
2021/08/04 15:31:07;;;;;;;4.20;2.20;;;22.60;98.40;;;;;;4995742;28;20473;-66
2021/08/04 15:33:34;;;;;;;2.53;2.20;;;22.50;98.40;;;;;;4996202;28;20460;-66
2021/08/04 15:36:04;;;;;;;4.73;3.30;;;22.60;98.90;;;;;;4996118;28;20460;-66
2021/08/04 15:38:32;;;;;;;2.40;2.20;;;22.60;98.30;;;;;;4996227;28;20802;-66
2021/08/04 15:40:59;;;;;;;2.43;2.33;;;22.60;98.80;;;;;;4995918;28;20470;-66
2021/08/04 15:43:26;;;;;;;2.47;2.33;;;22.60;98.20;;;;;;4996455;28;20461;-66
2021/08/04 15:45:53;;;;;;;2.17;2.07;;;22.60;99.00;;;;;;4995816;28;20457;-66
2021/08/04 15:48:20;;;;;;;2.70;2.50;;;22.60;99.00;;;;;;4995914;28;20879;-66
2021/08/04 15:50:47;;;;;;;2.20;2.00;;;22.60;98.80;;;;;;4995851;28;20493;-66
2021/08/04 15:53:15;;;;;;;2.47;2.27;;;22.60;98.80;;;;;;4995743;28;20801;-66
2021/08/04 15:55:43;;;;;;;2.80;2.60;;;22.60;99.30;;;;;;4995546;28;20461;-66
2021/08/04 15:58:09;;;;;;;2.40;2.30;;;22.60;98.90;;;;;;4999131;28;20461;-66
2021/08/04 16:00:37;;;;;;;2.60;2.40;;;22.50;98.60;;;;;;5004962;28;20481;-62
2021/08/04 16:03:05;;;;;;;3.70;3.50;;;22.70;99.90;;;;;;4998669;28;20449;-62
2021/08/04 16:05:32;;;;;;;5.70;5.30;;;22.80;99.50;;;;;;4995238;28;20823;-62
2021/08/04 16:07:59;;;;;;;2.60;2.37;;;22.90;99.90;;;;;;4995862;28;20454;-63
2021/08/04 16:10:26;;;;;;;3.00;2.40;;;22.90;98.70;;;;;;4995460;28;20486;-63
2021/08/04 16:12:54;;;;;;;2.23;2.13;;;23.00;99.90;;;;;;4995473;28;20454;-63
2021/08/04 16:15:21;;;;;;;2.30;2.20;;;23.10;99.20;;;;;;4995026;28;20564;-62
2021/08/04 16:17:48;;;;;;;2.63;2.43;;;23.00;98.10;;;;;;4994718;28;20442;-63
2021/08/04 16:20:15;;;;;;;6.80;6.30;;;23.10;99.90;;;;;;4995465;28;20454;-63
2021/08/04 16:22:42;;;;;;;56.57;51.07;;;23.00;99.90;;;;;;4995061;28;20478;-64
2021/08/04 16:25:12;;;;;;;8.70;7.90;;;23.10;99.90;;;;;;4995158;28;20453;-63
2021/08/04 16:27:39;;;;;;;3.13;2.93;;;23.10;99.90;;;;;;4998247;28;20438;-61
2021/08/04 16:30:09;;;;;;;4.70;4.13;;;23.10;98.70;;;;;;4998264;28;20544;-62
2021/08/04 16:32:36;;;;;;;2.40;2.20;;;23.20;99.40;;;;;;4995216;28;20485;-61
2021/08/04 16:35:05;;;;;;;3.87;3.57;;;23.20;98.40;;;;;;4995105;28;20485;-62
2021/08/04 16:37:32;;;;;;;3.20;3.00;;;23.20;98.80;;;;;;4994922;28;20458;-61
2021/08/04 16:39:58;;;;;;;2.70;2.50;;;23.20;98.90;;;;;;4994966;28;20454;-62
2021/08/04 16:42:25;;;;;;;3.33;2.90;;;23.20;99.80;;;;;;4994528;28;20478;-62
2021/08/04 16:44:53;;;;;;;2.90;2.70;;;23.20;98.80;;;;;;4995550;28;20464;-61
2021/08/04 16:47:21;;;;;;;2.73;2.50;;;23.20;98.20;;;;;;4994770;28;20453;-62
2021/08/04 16:49:48;;;;;;;2.27;2.13;;;23.20;98.70;;;;;;4994534;28;20485;-61
2021/08/04 16:52:15;;;;;;;2.30;2.20;;;23.10;99.90;;;;;;4994619;28;20479;-62
2021/08/04 16:54:41;;;;;;;2.87;2.70;;;23.10;99.70;;;;;;4994938;28;20458;-62